createdAt,value
2023-01-18T00:00:52.618Z,2.20
2023-01-18T00:06:15.062Z,1.70
2023-01-18T00:11:36.745Z,2.03
2023-01-18T00:16:58.436Z,1.73
2023-01-18T00:22:20.103Z,1.73
2023-01-18T00:27:46.571Z,2.00
2023-01-18T00:33:09.596Z,2.30
2023-01-18T00:38:31.813Z,2.05
2023-01-18T00:43:53.928Z,1.70
2023-01-18T00:49:15.586Z,2.08
2023-01-18T00:54:37.625Z,1.83
2023-01-18T00:59:59.410Z,1.60
2023-01-18T01:05:42.427Z,1.70
2023-01-18T01:11:12.186Z,1.70
2023-01-18T01:16:52.831Z,1.98
2023-01-18T01:22:33.396Z,2.00
2023-01-18T01:27:55.074Z,1.70
2023-01-18T01:33:18.525Z,1.80
2023-01-18T01:38:43.177Z,1.77
2023-01-18T01:44:20.232Z,2.30
2023-01-18T01:49:49.347Z,1.88
2023-01-18T01:55:23.935Z,1.80
2023-01-18T02:00:45.825Z,1.95
2023-01-18T02:06:31.635Z,1.90
2023-01-18T02:11:55.397Z,1.70
2023-01-18T02:17:44.661Z,2.13
2023-01-18T02:23:25.343Z,2.10
2023-01-18T02:29:06.050Z,1.90
2023-01-18T02:34:44.026Z,2.00
2023-01-18T02:40:27.447Z,1.77
2023-01-18T02:46:09.111Z,2.15
2023-01-18T02:51:30.780Z,1.55
2023-01-18T02:56:55.523Z,1.60
2023-01-18T03:02:21.003Z,1.70
2023-01-18T03:07:50.936Z,2.00
2023-01-18T03:13:25.748Z,1.55
2023-01-18T03:19:31.085Z,1.70
2023-01-18T03:24:52.884Z,1.80
2023-01-18T03:30:33.512Z,1.90
2023-01-18T03:35:56.619Z,2.08
2023-01-18T03:41:20.614Z,1.65
2023-01-18T03:46:43.971Z,1.70
2023-01-18T03:52:26.141Z,1.70
2023-01-18T03:57:47.892Z,1.60
2023-01-18T04:03:09.746Z,1.60
2023-01-18T04:08:31.514Z,1.40
2023-01-18T04:13:54.494Z,1.40
2023-01-18T04:19:17.394Z,1.90
2023-01-18T04:24:39.110Z,1.60
2023-01-18T04:30:00.942Z,1.50
2023-01-18T04:35:22.751Z,1.50
2023-01-18T04:40:44.532Z,1.60
2023-01-18T04:46:06.237Z,1.70
2023-01-18T04:51:28.113Z,1.70
2023-01-18T04:56:49.983Z,1.40
2023-01-18T05:02:12.449Z,1.50
2023-01-18T05:07:34.367Z,1.85
2023-01-18T05:12:56.601Z,1.60
2023-01-18T05:18:18.586Z,1.42
2023-01-18T05:23:40.711Z,1.15
2023-01-18T05:29:02.363Z,1.58
2023-01-18T05:34:24.081Z,1.40
2023-01-18T05:39:45.904Z,1.67
2023-01-18T05:45:08.285Z,1.50
2023-01-18T05:50:30.194Z,1.70
2023-01-18T05:55:57.567Z,1.50
2023-01-18T06:01:19.611Z,1.40
2023-01-18T06:06:41.389Z,1.20
2023-01-18T06:12:03.671Z,1.27
2023-01-18T06:17:25.614Z,1.27
2023-01-18T06:22:47.496Z,1.50
2023-01-18T06:28:09.228Z,2.50
2023-01-18T06:33:30.935Z,2.70
2023-01-18T06:38:53.180Z,3.00
2023-01-18T06:44:15.031Z,2.50
2023-01-18T06:49:36.987Z,2.55
2023-01-18T06:54:58.826Z,2.40
2023-01-18T07:00:20.990Z,2.22
2023-01-18T07:05:42.660Z,2.33
2023-01-18T07:11:07.065Z,2.33
2023-01-18T07:16:30.326Z,2.40
2023-01-18T07:21:53.877Z,2.00
2023-01-18T07:27:15.573Z,2.15
2023-01-18T07:32:37.342Z,1.90
2023-01-18T07:37:59.496Z,1.70
2023-01-18T07:43:21.158Z,1.63
2023-01-18T07:48:43.394Z,1.90
2023-01-18T07:54:05.175Z,1.90
2023-01-18T07:59:28.021Z,1.80
2023-01-18T08:04:50.348Z,1.45
2023-01-18T08:10:12.139Z,1.42
2023-01-18T08:15:33.907Z,1.33
2023-01-18T08:20:55.712Z,1.40
2023-01-18T08:26:17.521Z,1.67
2023-01-18T08:31:39.289Z,1.38
2023-01-18T08:37:00.973Z,1.55
2023-01-18T08:42:22.674Z,1.77
2023-01-18T08:47:44.652Z,1.38
2023-01-18T08:53:06.388Z,1.40
2023-01-18T08:58:31.680Z,1.63
2023-01-18T09:03:55.321Z,1.58
2023-01-18T09:09:17.119Z,1.70
2023-01-18T09:14:38.833Z,1.30
2023-01-18T09:20:00.576Z,1.42
2023-01-18T09:25:22.265Z,2.08
2023-01-18T09:30:44.026Z,1.27
2023-01-18T09:36:10.066Z,1.50
2023-01-18T09:41:34.501Z,2.08
2023-01-18T09:47:07.123Z,2.30
2023-01-18T09:53:01.376Z,2.88
2023-01-18T09:58:54.750Z,3.17
2023-01-18T10:04:19.331Z,2.58
2023-01-18T10:09:44.897Z,2.95
2023-01-18T10:15:10.761Z,2.58
2023-01-18T10:20:32.824Z,2.53
2023-01-18T10:26:01.741Z,1.98
2023-01-18T10:31:41.970Z,2.08
2023-01-18T10:37:15.262Z,2.10
2023-01-18T10:42:51.937Z,1.50
2023-01-18T10:48:32.433Z,2.08
2023-01-18T10:53:54.200Z,1.80
2023-01-18T10:59:26.517Z,1.85
2023-01-18T11:04:56.958Z,1.50
2023-01-18T11:10:27.533Z,1.77
2023-01-18T11:16:03.041Z,1.83
2023-01-18T11:21:26.480Z,1.47
2023-01-18T11:27:03.899Z,1.50
2023-01-18T11:32:31.000Z,1.25
2023-01-18T11:37:59.121Z,1.30
2023-01-18T11:43:25.521Z,1.63
2023-01-18T11:49:04.825Z,1.85
2023-01-18T11:54:29.172Z,1.35
2023-01-18T11:59:50.929Z,1.63
2023-01-18T12:05:15.436Z,2.20
2023-01-18T12:11:07.067Z,1.85
2023-01-18T12:16:44.375Z,1.95
2023-01-18T12:22:24.618Z,1.55
2023-01-18T12:28:20.176Z,1.88
2023-01-18T12:33:47.283Z,1.80
2023-01-18T12:39:37.648Z,1.52
2023-01-18T12:45:17.631Z,1.42
2023-01-18T12:50:40.431Z,1.50
2023-01-18T12:56:20.859Z,1.15
2023-01-18T13:01:52.183Z,1.20
2023-01-18T13:07:20.176Z,1.83
2023-01-18T13:12:42.475Z,1.30
2023-01-18T13:18:13.961Z,1.20
2023-01-18T13:24:16.412Z,1.35
2023-01-18T13:29:39.279Z,0.95
2023-01-18T13:35:21.298Z,1.10
2023-01-18T13:40:54.414Z,1.20
2023-01-18T13:46:23.763Z,1.42
2023-01-18T13:51:49.727Z,0.90
2023-01-18T13:57:17.054Z,1.08
2023-01-18T14:02:45.540Z,0.80
2023-01-18T14:08:07.393Z,0.70
2023-01-18T14:13:55.231Z,0.90
2023-01-18T14:19:20.184Z,0.77
2023-01-18T14:25:20.216Z,0.80
2023-01-18T14:30:45.658Z,0.70
2023-01-18T14:36:08.725Z,1.13
2023-01-18T14:41:31.497Z,5.90
2023-01-18T14:46:56.531Z,10.48
2023-01-18T14:52:19.142Z,10.53
2023-01-18T14:57:40.867Z,7.60
2023-01-18T15:03:03.111Z,7.20
2023-01-18T15:08:28.077Z,5.97
2023-01-18T15:13:52.860Z,4.97
2023-01-18T15:19:20.277Z,4.60
2023-01-18T15:24:44.384Z,4.18
2023-01-18T15:30:13.058Z,3.55
2023-01-18T15:35:34.950Z,3.42
2023-01-18T15:41:05.032Z,3.33
2023-01-18T15:46:29.136Z,2.85
2023-01-18T15:51:56.570Z,2.40
2023-01-18T15:57:20.552Z,2.40
2023-01-18T16:02:43.348Z,2.40
2023-01-18T16:08:21.407Z,2.25
2023-01-18T16:13:43.618Z,3.73
2023-01-18T16:19:29.084Z,4.78
2023-01-18T16:24:51.089Z,4.20
2023-01-18T16:30:20.216Z,3.10
2023-01-18T16:35:42.295Z,2.97
2023-01-18T16:41:04.085Z,3.13
2023-01-18T16:46:26.582Z,2.83
2023-01-18T16:51:50.014Z,2.47
2023-01-18T16:57:22.261Z,2.60
2023-01-18T17:02:44.406Z,3.03
2023-01-18T17:08:06.173Z,2.60
2023-01-18T17:13:27.851Z,2.10
2023-01-18T17:18:50.038Z,2.30
2023-01-18T17:24:11.819Z,2.13
2023-01-18T17:29:33.566Z,1.67
2023-01-18T17:34:55.265Z,1.80
2023-01-18T17:40:27.177Z,1.98
2023-01-18T17:46:01.232Z,1.40
2023-01-18T17:51:23.546Z,1.58
2023-01-18T17:56:45.568Z,1.60
2023-01-18T18:02:09.932Z,1.63
2023-01-18T18:07:31.708Z,1.55
2023-01-18T18:12:53.657Z,1.60
2023-01-18T18:18:23.097Z,1.50
2023-01-18T18:23:46.263Z,1.50
2023-01-18T18:29:08.110Z,1.65
2023-01-18T18:34:30.267Z,1.55
2023-01-18T18:39:52.013Z,1.67
2023-01-18T18:45:14.068Z,1.90
2023-01-18T18:50:35.766Z,1.67
2023-01-18T18:56:00.403Z,1.90
2023-01-18T19:01:24.613Z,1.30
2023-01-18T19:06:46.431Z,1.85
2023-01-18T19:12:08.836Z,1.83
2023-01-18T19:17:31.620Z,1.98
2023-01-18T19:22:53.600Z,1.80
2023-01-18T19:28:16.288Z,1.33
2023-01-18T19:33:38.094Z,2.13
2023-01-18T19:39:02.308Z,1.20
2023-01-18T19:44:25.063Z,1.60
2023-01-18T19:49:46.824Z,1.50
2023-01-18T19:55:08.979Z,1.25
2023-01-18T20:00:30.735Z,1.50
2023-01-18T20:05:52.467Z,1.40
2023-01-18T20:11:15.619Z,1.70
2023-01-18T20:16:37.513Z,1.42
2023-01-18T20:21:59.291Z,1.30
2023-01-18T20:27:20.983Z,1.40
2023-01-18T20:32:42.790Z,1.40
2023-01-18T20:38:04.526Z,1.55
2023-01-18T20:43:26.286Z,1.92
2023-01-18T20:48:48.011Z,1.58
2023-01-18T20:54:09.756Z,1.10
2023-01-18T20:59:31.584Z,1.15
2023-01-18T21:04:53.437Z,1.20
2023-01-18T21:10:15.337Z,1.55
2023-01-18T21:15:39.258Z,1.13
2023-01-18T21:21:01.327Z,1.65
2023-01-18T21:26:23.283Z,1.02
2023-01-18T21:31:45.661Z,1.30
2023-01-18T21:37:07.390Z,1.10
2023-01-18T21:42:47.985Z,1.40
2023-01-18T21:48:09.702Z,1.30
2023-01-18T21:53:50.260Z,1.30
2023-01-18T21:59:13.541Z,1.80
2023-01-18T22:04:54.180Z,2.05
2023-01-18T22:10:16.277Z,1.13
2023-01-18T22:15:38.094Z,1.00
2023-01-18T22:20:59.773Z,0.90
2023-01-18T22:26:23.533Z,1.05
2023-01-18T22:31:45.221Z,1.17
2023-01-18T22:37:06.951Z,0.88
2023-01-18T22:42:28.690Z,0.82
2023-01-18T22:47:50.592Z,0.82
2023-01-18T22:53:12.294Z,0.80
2023-01-18T22:58:35.869Z,1.05
2023-01-18T23:03:59.745Z,0.70
2023-01-18T23:09:21.725Z,0.70
2023-01-18T23:15:01.761Z,0.80
2023-01-18T23:20:26.830Z,0.80
2023-01-18T23:25:54.471Z,0.80
2023-01-18T23:31:17.985Z,0.80
2023-01-18T23:36:39.757Z,0.73
2023-01-18T23:42:20.139Z,0.63
2023-01-18T23:48:00.520Z,0.77
2023-01-18T23:53:40.835Z,0.80
2023-01-18T23:59:02.844Z,0.60
